Terminal Aerodrome Forecast
Issued by NWS

Home | Current Version | Previous Version | Text Only | Print | Product List | Glossary On
Versions: 1 2 3 4 5 6 7 8 9 10 11 12 13 14 15 16 17 18 19 20 21 22 23 24 25 26 27 28 29 30 31 32 33 34 35 36 37 38 39 40 41 42 43 44 45 46 47 48 49 50
000
FTAK31 PANC 230520
TAFASN
TAF
PASN 230520Z 2306/2406 14023G30KT 5SM -RA BR BKN013 OVC022
      TEMPO 2306/2310 2SM -RA BR BKN008
     FM231200 13017G24KT 2SM -RA BR OVC008
     FM231600 20013KT 5SM -SHRA BR SCT008 OVC015
     FM232200 16014KT 5SM -SHRA BR BKN008=

USA.gov is the U.S. government's official web portal to all federal, state and local government web resources and services.